This is the latest recevied weather packets stored in our database for station/object OH2NJR. If no packets are shown the sender has not sent any weather packets the latest 10 day(s).
| Time | Temp. | Humidity | Pressure | Rain* | Wind** | Luminosity | Snow |
|---|---|---|---|---|---|---|---|
| 1777595188 | 9.44° C | 72% | 1021.2 hPa | 0 mm | - | - | - |
| 1777594070 | 9.44° C | 71% | 1021.2 hPa | 0 mm | - | - | - |
| 1777593068 | 9.44° C | 71% | 1021.2 hPa | 0 mm | - | - | - |
| 1777592073 | 9.44° C | 70% | 1021.2 hPa | 0 mm | - | - | - |
| 1777590878 | 10° C | 69% | 1021.1 hPa | 0 mm | - | - | - |
| 1777589884 | 10° C | 68% | 1021.1 hPa | 0 mm | - | - | - |
| 1777589879 | 10° C | 68% | 1021.1 hPa | 0 mm | - | - | - |
| 1777588897 | 10° C | 68% | 1021.1 hPa | 0 mm | - | - | - |
| 1777588849 | 10° C | 68% | 1021.1 hPa | 0 mm | - | - | - |
| 1777587783 | 10.56° C | 67% | 1020.9 hPa | 0 mm | - | - | - |
| 1777586623 | 10.56° C | 66% | 1020.9 hPa | 0 mm | - | - | - |
| 1777586620 | 10.56° C | 66% | 1020.9 hPa | 0 mm | - | - | - |
| 1777585618 | 10.56° C | 65% | 1020.8 hPa | 0 mm | - | - | - |
| 1777584420 | 11.11° C | 64% | 1020.8 hPa | 0 mm | - | - | - |
| 1777584416 | 11.11° C | 64% | 1020.8 hPa | 0 mm | - | - | - |
| 1777583349 | 11.67° C | 63% | 1020.8 hPa | 0 mm | - | - | - |
| 1777582390 | 12.78° C | 60% | 1020.6 hPa | 0 mm | - | - | - |
| 1777581338 | 12.22° C | 62% | 1020.5 hPa | 0 mm | - | - | - |
| 1777580150 | 11.11° C | 69% | 1020.4 hPa | 0 mm | - | - | - |
| 1777579069 | 9.44° C | 76% | 1020.4 hPa | 0 mm | - | - | - |
| 1777578049 | 8.89° C | 79% | 1020.5 hPa | 0 mm | - | - | - |
| 1777576889 | 9.44° C | 75% | 1020.2 hPa | 0 mm | - | - | - |
| 1777575696 | 9.44° C | 76% | - | 0 mm | - | - | - |
| 1777575694 | 9.44° C | 76% | 1020.1 hPa | 0 mm | - | - | - |
| 1777574672 | 10° C | 74% | 1020.1 hPa | 0 mm | - | - | - |
* Rain latest hour (hover to see other rain measurements)
** Current wind speed in m/s (hover to see current wind gust speed)